Main page
METAR-TAF:

METAR-TAF

Airports :

Bergamo, Italy

Orio al Serio International Airport

latitude: 45-40N, longitude: 009-42E, elevation: 238 m

Current weather observation

The report was made 23 minutes ago, at 21:50 UTC
Wind 4 kt from the North, varying between Northwest and North/Northeast
Temperature 18°C
Humidity 73%
Pressure 1014 hPa
Visibility 10 km or more
no clouds below 1500 m and no cumulonimbus

METAR: LIME 192150Z 36004KT 310V020 CAVOK 18/13 Q1014 NOSIG

Time: 00:13 (22:13 UTC)

Forecast

The report was made 5 hours and 13 minutes ago, at 17:00 UTC
Forecast valid from 19 at 18 UTC to 20 at 18 UTC
Wind 5 kt from variable directions
Visibility 10 km or more
Scattered clouds at a height of 6000 ft
Temporary
from 19 at 18 UTC to 19 at 24 UTC
thunderstorm, rain

TAF: LIME 191700Z 1918/2018 VRB05KT 9999 SCT060 TEMPO 1918/1924 TSRA

Weather observations and forecasts of more than 4000 airports (METAR and TAF reports).

The available stations are represented by yellow and red dots on the map.

Hover mouse over dot to see the name of the station.

Then click to see weather observations and forecasts.

To change the map : click on the green buttons with a black cross to zoom in, on the green button with a dash to zoom out, or on the green arrows for adjacent maps.


METAR-TAF: